Tolani, Arizona
Current Conditions -  °F | °C
As of 6:56 AM on Wednesday 26 Nov 2014 (Local Time) from KINW Reporting Station
Clear Clear  
Wind Chill: 20°   Ceiling: Unl
Heat Index: 20°   Visibility: 10mi
Dew Point:   Wind: 3mph
Humidity: 46%   Direction: 110°ESE
Pressure: 30.43"   Gusts: NA
Location:  35.1934°N, 110.361°W
Report Text: KINW 261356Z AUTO 11003KT 10SM CLR M07/M17 A3043 RMK AO2 SLP335 T10671167
Loading
Personal Weather Stations






























Interactive Weather Map New forecast layout! Learn more

10-Day Weather Forecast

Advertisements
Track Severe Weather on mobile